Station: Coonawarra

  Atmospheric Gas Attenuation - ITU Rec 676-11   --------------- db/100km ---------------
Date Time Temp RH % AH g/m3 Dew Point Wind Direction Speed kph Gust kph Barometer mB Rainfall Since 9am 24GHz 47GHz 76GHz 122GHz 134GHz 241GHz
13 07:10 4.1 100 6.41 4.1 6 6 1027.2 0.2 15.3 25.6 36.0 94.0 81.0 275.9
13 07:00 4.4 99 6.47 4.2 6 9 1027.2 0.2 15.4 25.6 36.1 94.4 81.5 277.8
13 06:50 4.7 99 6.6 4.5 6 6 1027 0 15.7 25.7 36.5 95.4 83.0 283.0
13 06:40 4.8 97 6.51 4.3 7 7 1027 0 15.5 25.6 36.1 94.3 81.6 278.2
13 06:30 4.8 99 6.64 4.6 7 9 1027.1 0 15.8 25.8 36.7 95.8 83.4 284.6
13 06:20 4.7 99 6.6 4.5 6 6 1026.8 0 15.7 25.7 36.5 95.4 83.0 282.9
13 06:10 4.5 99 6.51 4.3 6 7 1026.8 0 15.5 25.6 36.2 94.7 81.9 279.3
13 06:00 4.4 97 6.34 3.9 9 11 1026.9 0 15.1 25.4 35.6 92.9 79.7 271.3
13 05:50 4.2 97 6.26 3.7 9 11 1026.7 0 15.0 25.3 35.3 92.2 78.7 268.1
13 05:40 3.7 99 6.17 3.5 0 0 1026.6 0 14.8 25.3 35.2 91.7 78.0 265.4
13 05:30 3.5 97 5.97 3 0 0 1026.7 0 14.4 25.0 34.4 89.7 75.4 256.3
13 05:20 3.5 99 6.09 3.3 0 0 1026.5 0 14.6 25.2 34.9 91.1 77.1 262.1
13 05:10 3.3 99 6.01 3.1 0 0 1026.5 0 14.5 25.1 34.7 90.4 76.1 258.9
13 04:50 3 96 5.71 2.5 0 0 1026.2 0 13.8 24.7 33.5 87.4 72.3 245.2
13 04:40 2.6 96 5.56 2.1 0 0 1026.1 0 13.5 24.5 33.1 86.1 70.6 239.2
13 04:30 2.5 96 5.52 2 0 0 1026 0 13.4 24.5 32.9 85.8 70.1 237.5
13 04:20 2.6 96 5.56 2.1 0 0 1025.8 0 13.5 24.5 33.0 86.1 70.5 239.1
13 04:10 2.9 98 5.79 2.6 0 0 1025.9 0 14.0 24.8 33.9 88.3 73.4 249.4
13 04:00 3.1 98 5.87 2.8 2 6 1026 0 14.2 24.9 34.1 89.0 74.4 252.6
13 03:50 3.4 97 5.93 2.9 6 7 1025.8 0 14.3 24.9 34.2 89.3 74.9 254.5
13 03:40 3.4 99 6.05 3.2 6 7 1025.6 0 14.6 25.1 34.7 90.6 76.5 260.3
13 03:30 3.7 97 6.05 3.2 7 9 1025.6 0 14.5 25.0 34.6 90.3 76.2 259.3
13 03:20 3.8 99 6.22 3.6 11 11 1025.5 0 14.9 25.3 35.3 92.1 78.5 267.2
13 03:10 3.9 97 6.13 3.4 9 11 1025.5 0 14.7 25.1 34.9 91.0 77.2 262.5
13 03:00 3.5 97 5.97 3 7 9 1025.6 0 14.4 25.0 34.4 89.6 75.3 256.1
13 02:50 3.2 99 5.97 3 6 6 1025.6 0 14.4 25.0 34.5 90.0 75.6 257.1
13 02:40 3.2 99 5.97 3 0 0 1025.6 0 14.4 25.0 34.5 90.0 75.6 257.1
13 02:30 3.2 96 5.79 2.7 0 2 1025.7 0 14.0 24.7 33.7 88.0 73.1 248.4
13 02:20 3.3 97 5.89 2.8 2 4 1025.5 0 14.2 24.9 34.1 89.0 74.4 252.8
13 02:10 3.3 99 6.01 3.1 6 6 1025.4 0 14.5 25.1 34.6 90.3 76.1 258.7
13 02:00 3.3 97 5.89 2.8 6 9 1025.5 0 14.2 24.9 34.1 89.0 74.4 252.8
13 01:50 3 98 5.83 2.7 4 6 1025.5 0 14.1 24.9 34.0 88.6 73.9 250.9
13 01:40 3 96 5.71 2.5 9 9 1025.3 0 13.8 24.7 33.5 87.3 72.2 245.0
13 01:30 3.1 98 5.87 2.8 6 7 1025.3 0 14.2 24.9 34.1 88.9 74.3 252.5
13 01:20 3.4 100 6.11 3.4 6 7 1025.1 0 14.7 25.2 35.0 91.3 77.3 263.1
13 01:10 3.5 97 5.97 3 7 7 1025.1 0 14.4 24.9 34.3 89.6 75.3 256.0
13 01:00 3.4 99 6.05 3.2 6 9 1025.2 0 14.6 25.1 34.7 90.6 76.5 260.2
13 00:50 3.2 96 5.79 2.7 6 7 1025.1 0 14.0 24.7 33.7 87.9 73.1 248.2
13 00:40 3 98 5.83 2.7 6 7 1025.2 0 14.1 24.9 34.0 88.6 73.9 250.8
13 00:30 2.9 100 5.91 2.9 4 7 1025.4 0 14.3 25.0 34.4 89.6 75.1 255.1
13 00:20 3.1 98 5.87 2.8 2 4 1025.4 0 14.2 24.9 34.1 89.0 74.3 252.5
13 00:10 3.8 100 6.28 3.8 4 4 1025.4 0 15.0 25.4 35.5 92.8 79.3 270.1
13 00:00 4.7 97 6.47 4.2 7 7 1025.5 0 15.4 25.5 35.9 93.8 81.0 276.3
12 23:50 4.1 95 6.09 3.4 7 7 1025.4 0 14.6 25.0 34.6 90.3 76.4 259.9
12 23:40 4.2 100 6.45 4.2 7 7 1025.4 0 15.4 25.6 36.1 94.2 81.3 277.1
12 23:30 4.3 97 6.3 3.8 6 7 1025.5 0 15.1 25.3 35.4 92.4 79.1 269.4
12 23:20 4.2 97 6.26 3.7 6 7 1025.4 0 15.0 25.2 35.3 92.1 78.6 267.8
12 23:10 4.5 97 6.38 4 6 7 1025.4 0 15.2 25.4 35.6 93.0 80.0 272.6
12 23:00 4.7 97 6.47 4.2 6 7 1025.4 0 15.4 25.5 35.9 93.8 81.0 276.3
12 22:50 4.6 97 6.42 4.1 6 6 1025.3 0 15.3 25.4 35.8 93.4 80.4 274.2
12 22:40 4.7 97 6.47 4.2 7 7 1025.2 0 15.4 25.5 35.9 93.8 81.0 276.2
12 22:30 4.9 99 6.69 4.7 6 7 1025.3 0 15.9 25.8 36.8 96.1 83.9 286.3
12 22:20 5.5 99 6.96 5.3 6 7 1025.1 0 16.4 26.0 37.6 98.3 87.0 297.2
12 22:10 5.6 99 7 5.4 9 9 1025.1 0 16.5 26.1 37.7 98.7 87.4 298.8
12 22:00 5.6 99 7 5.4 6 7 1025.1 0 16.5 26.1 37.7 98.7 87.4 298.8
12 21:50 6.1 97 7.09 5.6 0 0 1025 0 16.7 26.1 37.9 99.0 88.1 301.3
12 21:40 6.4 99 7.38 6.2 0 0 1024.9 0 17.3 26.5 39.0 101.9 91.8 314.3
12 21:30 6.9 97 7.47 6.5 7 11 1024.9 0 17.5 26.5 39.1 102.3 92.5 316.7
12 21:20 8.3 97 8.18 7.9 9 11 1024.8 0 18.9 27.3 41.4 108.5 100.7 345.7
12 21:10 8.5 97 8.28 8.1 9 11 1024.7 0 19.1 27.4 41.7 109.4 101.9 349.7
12 21:00 8.6 96 8.25 8 11 13 1024.7 0 19.1 27.3 41.5 108.9 101.3 347.8
12 20:50 8.2 96 8.04 7.6 11 11 1024.6 0 18.6 27.1 40.9 107.0 98.9 339.2
12 20:40 8 96 7.94 7.4 11 13 1024.6 0 18.4 27.0 40.5 106.2 97.7 335.1
12 20:30 8.2 94 7.88 7.3 11 13 1024.6 0 18.3 26.8 40.2 105.2 96.6 331.3
12 20:20 9.1 95 8.43 8.3 11 11 1024.3 0 19.4 27.5 42.0 110.2 103.1 354.3
12 20:10 9.5 93 8.47 8.5 11 13 1024.3 0 19.5 27.4 42.0 110.1 103.2 354.5
12 20:00 9.5 95 8.65 8.7 11 15 1024.5 0 19.9 27.7 42.8 112.2 105.7 363.4
12 19:50 9.5 95 8.65 8.7 9 11 1024.2 0 19.9 27.7 42.8 112.1 105.7 363.3
12 19:40 8.9 95 8.32 8.1 9 11 1024.1 0 19.2 27.3 41.7 109.2 101.8 349.7
12 19:30 9.4 92 8.32 8.2 9 11 1024 0 19.2 27.2 41.4 108.5 101.2 347.5
12 19:20 9 93 8.2 8 9 9 1023.7 0 19.0 27.1 41.1 107.7 100.0 343.3
12 19:10 9.7 92 8.48 8.5 11 13 1023.6 0 19.5 27.3 41.9 109.8 103.0 353.8
12 19:00 10 92 8.65 8.8 11 13 1023.7 0 19.9 27.5 42.5 111.4 105.0 360.8
12 18:50 9.8 91 8.45 8.4 9 9 1023.5 0 19.5 27.2 41.7 109.4 102.4 351.9
12 18:40 10.2 91 8.66 8.8 7 9 1023.3 0 19.9 27.5 42.4 111.2 104.8 360.3
12 18:30 10.6 90 8.79 9 9 13 1023.4 0 20.1 27.6 42.7 112.1 106.1 364.8
12 18:20 10.7 89 8.74 8.9 9 9 1023.1 0 20.0 27.4 42.4 111.3 105.2 361.8
12 18:10 10.6 89 8.69 8.8 9 11 1023 0 19.9 27.4 42.3 110.9 104.6 359.8
12 18:00 11 87 8.71 9 9 11 1022.9 0 20.0 27.3 42.1 110.5 104.4 358.9
12 17:50 11.4 86 8.83 9.2 11 13 1022.6 0 20.2 27.4 42.4 111.3 105.5 362.8
12 17:40 11.8 85 8.95 9.4 11 13 1022.5 0 20.4 27.4 42.7 112.0 106.6 366.7
12 17:30 12.2 83 8.96 9.4 15 20 1022.4 0 20.4 27.3 42.5 111.6 106.1 365.3
12 17:20 12.3 83 9.01 9.5 19 20 1022.1 0 20.5 27.4 42.7 112.0 106.7 367.1
12 17:10 12.4 82 8.96 9.4 15 17 1022 0 20.4 27.2 42.4 111.2 105.8 364.2
12 17:00 12.7 80 8.91 9.3 13 19 1021.9 0 20.3 27.1 42.0 110.3 104.7 360.4
12 16:50 13.1 77 8.79 9.1 11 13 1021.7 0 20.0 26.7 41.3 108.4 102.5 352.8
12 16:40 13.5 74 8.66 8.9 13 17 1021.7 0 19.7 26.4 40.6 106.4 100.3 344.9
12 16:30 14 70 8.44 8.6 15 20 1021.7 0 19.2 25.9 39.4 103.4 96.7 332.6
12 16:20 14.4 65 8.04 8 15 17 1021.4 0 18.4 25.1 37.6 98.6 91.0 312.6
12 16:10 14.5 63 7.84 7.6 19 22 1021.3 0 17.9 24.8 36.8 96.4 88.3 303.2
12 16:00 14.6 62 7.76 7.5 17 22 1021.4 0 17.8 24.6 36.5 95.4 87.2 299.2
12 15:50 14.7 61 7.68 7.4 15 20 1021.3 0 17.6 24.5 36.1 94.5 86.1 295.3
12 15:40 14.7 62 7.81 7.6 17 19 1021.3 0 17.9 24.7 36.6 95.8 87.7 301.1
12 15:30 14.8 59 7.47 7 19 26 1021.3 0 17.1 24.1 35.3 92.2 83.3 285.6
12 15:20 14.8 61 7.73 7.5 19 26 1021.2 0 17.7 24.5 36.2 94.9 86.6 297.1
12 15:10 15 61 7.82 7.5 13 15 1021.1 0 17.9 24.6 36.5 95.5 87.5 300.3
12 15:00 15 60 7.69 7.3 19 26 1021.1 0 17.6 24.4 36.0 94.2 85.8 294.6
12 14:50 15 58 7.44 6.8 20 24 1021 0 17.1 24.0 35.0 91.6 82.7 283.5
12 14:40 15 61 7.82 7.5 20 24 1020.8 0 17.9 24.6 36.5 95.5 87.5 300.3
12 14:30 14.9 63 8.03 7.9 19 26 1020.9 0 18.3 25.0 37.3 97.8 90.3 310.0

Last Refresh: 13-Jul-2020 07:18:57

Most of the information presented on this site is sourced from the Bureau of Meteorology.  Copyright in all material sourced from the Bureau of Meteorology resides with the Commonwealth of Australia.